createdAt,value
2019-02-15T00:00:27.417Z,4.60
2019-02-15T00:02:56.826Z,4.50
2019-02-15T00:05:26.289Z,4.60
2019-02-15T00:07:55.644Z,4.83
2019-02-15T00:10:25.037Z,5.23
2019-02-15T00:12:54.422Z,4.53
2019-02-15T00:15:25.514Z,4.60
2019-02-15T00:20:50.696Z,4.75
2019-02-15T00:23:20.431Z,4.90
2019-02-15T00:25:49.982Z,5.10
2019-02-15T00:28:22.332Z,4.87
2019-02-15T00:30:51.816Z,4.90
2019-02-15T00:33:21.252Z,4.57
2019-02-15T00:35:51.043Z,4.50
2019-02-15T00:38:21.072Z,4.13
2019-02-15T00:40:50.443Z,4.20
2019-02-15T00:43:22.301Z,3.80
2019-02-15T00:45:51.219Z,4.30
2019-02-15T00:48:23.288Z,4.17
2019-02-15T00:50:59.629Z,4.33
2019-02-15T00:53:42.529Z,4.20
2019-02-15T00:56:13.706Z,3.40
2019-02-15T00:58:57.399Z,3.93
2019-02-15T01:01:42.092Z,3.57
2019-02-15T01:04:14.616Z,3.90
2019-02-15T01:06:47.955Z,3.60
2019-02-15T01:09:21.509Z,3.67
2019-02-15T01:11:53.141Z,4.27
2019-02-15T01:14:22.570Z,3.60
2019-02-15T01:16:52.123Z,4.07
2019-02-15T01:19:21.704Z,4.23
2019-02-15T01:21:51.840Z,4.20
2019-02-15T01:24:22.226Z,6.80
2019-02-15T01:26:52.320Z,6.77
2019-02-15T01:29:27.729Z,5.00
2019-02-15T01:32:03.467Z,4.90
2019-02-15T01:34:49.544Z,4.50
2019-02-15T01:37:22.535Z,4.50
2019-02-15T01:40:07.486Z,4.67
2019-02-15T01:45:34.210Z,6.18
2019-02-15T01:48:03.545Z,6.50
2019-02-15T01:50:33.059Z,6.03
2019-02-15T01:53:02.694Z,6.03
2019-02-15T01:55:32.916Z,5.77
2019-02-15T01:58:02.627Z,6.07
2019-02-15T02:00:32.372Z,6.50
2019-02-15T02:03:01.843Z,6.80
2019-02-15T02:05:31.132Z,6.70
2019-02-15T02:08:01.299Z,7.07
2019-02-15T02:10:30.752Z,6.13
2019-02-15T02:13:00.380Z,7.17
2019-02-15T02:15:29.726Z,7.30
2019-02-15T02:17:59.271Z,7.23
2019-02-15T02:20:28.703Z,8.53
2019-02-15T02:22:59.101Z,6.73
2019-02-15T02:25:28.943Z,6.87
2019-02-15T02:27:58.417Z,7.77
2019-02-15T02:30:28.266Z,7.50
2019-02-15T02:32:58.454Z,7.50
2019-02-15T02:35:28.913Z,6.90
2019-02-15T02:37:58.237Z,7.23
2019-02-15T02:40:27.968Z,7.83
2019-02-15T02:42:57.510Z,6.47
2019-02-15T02:45:27.060Z,7.03
2019-02-15T02:47:56.841Z,6.93
2019-02-15T02:50:26.769Z,8.00
2019-02-15T02:52:56.002Z,7.20
2019-02-15T02:55:25.444Z,7.40
2019-02-15T02:57:54.803Z,7.00
2019-02-15T03:00:32.915Z,7.53
2019-02-15T03:02:53.973Z,7.33
2019-02-15T03:05:23.208Z,7.50
2019-02-15T03:07:52.573Z,7.97
2019-02-15T03:10:22.208Z,7.57
2019-02-15T03:12:52.110Z,7.63
2019-02-15T03:15:21.877Z,8.87
2019-02-15T03:17:51.346Z,8.13
2019-02-15T03:20:30.548Z,8.23
2019-02-15T03:22:51.593Z,8.70
2019-02-15T03:25:20.923Z,9.73
2019-02-15T03:27:50.532Z,9.17
2019-02-15T03:30:20.043Z,10.43
2019-02-15T03:32:49.573Z,9.33
2019-02-15T03:35:19.203Z,9.20
2019-02-15T03:37:49.895Z,9.30
2019-02-15T03:40:19.781Z,11.10
2019-02-15T03:42:49.521Z,11.73
2019-02-15T03:45:19.727Z,11.53
2019-02-15T03:47:50.008Z,11.43
2019-02-15T03:50:19.716Z,10.17
2019-02-15T03:52:49.405Z,9.40
2019-02-15T03:55:19.800Z,9.70
2019-02-15T03:57:49.556Z,10.73
2019-02-15T04:00:18.989Z,11.83
2019-02-15T04:02:48.450Z,10.40
2019-02-15T04:05:18.825Z,11.00
2019-02-15T04:07:48.541Z,10.53
2019-02-15T04:10:18.078Z,10.57
2019-02-15T04:12:47.760Z,11.37
2019-02-15T04:15:18.194Z,11.60
2019-02-15T04:17:47.457Z,11.93
2019-02-15T04:20:17.286Z,11.63
2019-02-15T04:22:46.639Z,12.47
2019-02-15T04:25:16.534Z,11.47
2019-02-15T04:27:45.850Z,10.63
2019-02-15T04:30:15.001Z,10.70
2019-02-15T04:32:44.397Z,11.07
2019-02-15T04:35:14.029Z,9.97
2019-02-15T04:37:43.978Z,11.30
2019-02-15T04:40:13.669Z,11.00
2019-02-15T04:42:44.328Z,11.37
2019-02-15T04:45:14.366Z,10.80
2019-02-15T04:47:43.900Z,12.17
2019-02-15T04:50:13.538Z,10.67
2019-02-15T04:52:42.941Z,10.23
2019-02-15T04:55:12.399Z,10.83
2019-02-15T04:57:42.097Z,10.97
2019-02-15T05:00:11.746Z,10.37
2019-02-15T05:02:41.281Z,9.20
2019-02-15T05:05:10.606Z,8.90
2019-02-15T05:07:40.148Z,9.00
2019-02-15T05:10:09.272Z,8.60
2019-02-15T05:12:39.202Z,9.33
2019-02-15T05:15:10.131Z,9.53
2019-02-15T05:17:39.085Z,8.73
2019-02-15T05:20:08.831Z,10.27
2019-02-15T05:22:38.407Z,14.43
2019-02-15T05:25:07.984Z,8.97
2019-02-15T05:27:37.409Z,7.97
2019-02-15T05:30:07.421Z,9.80
2019-02-15T05:32:36.911Z,13.60
2019-02-15T05:35:06.852Z,11.80
2019-02-15T05:37:36.649Z,9.93
2019-02-15T05:40:06.065Z,7.30
2019-02-15T05:42:35.436Z,12.57
2019-02-15T05:45:05.305Z,17.03
2019-02-15T05:47:35.480Z,6.40
2019-02-15T05:50:05.214Z,6.53
2019-02-15T05:52:34.741Z,6.20
2019-02-15T05:55:04.446Z,6.50
2019-02-15T05:57:33.972Z,7.13
2019-02-15T06:00:03.926Z,6.90
2019-02-15T06:02:33.347Z,7.37
2019-02-15T06:05:03.044Z,6.70
2019-02-15T06:07:32.332Z,13.80
2019-02-15T06:10:01.783Z,13.83
2019-02-15T06:12:31.091Z,9.07
2019-02-15T06:15:00.752Z,4.33
2019-02-15T06:17:30.215Z,5.50
2019-02-15T06:19:59.822Z,4.73
2019-02-15T06:22:29.238Z,4.77
2019-02-15T06:24:58.793Z,3.83
2019-02-15T06:27:28.421Z,4.63
2019-02-15T06:29:58.079Z,3.63
2019-02-15T06:32:27.521Z,2.73
2019-02-15T06:34:57.314Z,3.03
2019-02-15T06:37:26.959Z,3.97
2019-02-15T06:39:56.425Z,2.67
2019-02-15T06:42:26.688Z,1.97
2019-02-15T06:44:57.278Z,2.13
2019-02-15T06:47:26.678Z,2.73
2019-02-15T06:49:56.139Z,2.50
2019-02-15T06:52:25.659Z,2.20
2019-02-15T06:54:55.184Z,2.87
2019-02-15T06:57:24.800Z,2.50
2019-02-15T06:59:55.440Z,3.07
2019-02-15T07:02:28.532Z,2.27
2019-02-15T07:05:03.891Z,4.97
2019-02-15T07:07:33.161Z,5.43
2019-02-15T07:10:02.601Z,4.23
2019-02-15T07:12:31.915Z,4.57
2019-02-15T07:15:01.328Z,3.30
2019-02-15T07:17:30.920Z,2.30
2019-02-15T07:20:00.678Z,2.30
2019-02-15T07:22:31.116Z,2.43
2019-02-15T07:25:00.427Z,2.20
2019-02-15T07:27:29.764Z,2.00
2019-02-15T07:29:59.197Z,2.27
2019-02-15T07:32:29.467Z,2.00
2019-02-15T07:34:59.291Z,2.43
2019-02-15T07:37:28.559Z,2.70
2019-02-15T07:39:58.001Z,2.17
2019-02-15T07:42:27.133Z,2.00
2019-02-15T07:44:57.345Z,2.37
2019-02-15T07:47:26.808Z,2.00
2019-02-15T07:49:56.731Z,2.30
2019-02-15T07:52:26.273Z,1.90
2019-02-15T07:54:55.398Z,1.90
2019-02-15T07:57:24.929Z,1.73
2019-02-15T07:59:54.198Z,2.03
2019-02-15T08:02:23.829Z,2.07
2019-02-15T08:04:53.493Z,2.10
2019-02-15T08:07:23.131Z,2.40
2019-02-15T08:09:52.678Z,2.40
2019-02-15T08:12:22.221Z,2.00
2019-02-15T08:14:51.537Z,2.10
2019-02-15T08:17:21.091Z,1.90
2019-02-15T08:19:50.302Z,1.87
2019-02-15T08:22:19.540Z,1.50
2019-02-15T08:24:49.152Z,1.40
2019-02-15T08:27:18.590Z,1.70
2019-02-15T08:29:48.117Z,1.30
2019-02-15T08:32:17.584Z,1.43
2019-02-15T08:34:47.000Z,1.40
2019-02-15T08:37:16.541Z,1.30
2019-02-15T08:39:46.210Z,1.27
2019-02-15T08:42:15.701Z,1.10
2019-02-15T08:44:45.432Z,0.90
2019-02-15T08:47:15.181Z,1.10
2019-02-15T08:49:44.552Z,1.20
2019-02-15T08:52:14.497Z,1.10
2019-02-15T08:54:43.919Z,1.10
2019-02-15T08:57:14.104Z,1.03
2019-02-15T08:59:44.211Z,1.00
2019-02-15T09:02:16.266Z,0.90
2019-02-15T09:04:45.774Z,0.97
2019-02-15T09:07:15.113Z,1.10
2019-02-15T09:09:45.381Z,1.10
2019-02-15T09:12:14.845Z,1.00
2019-02-15T09:14:44.157Z,1.00
2019-02-15T09:17:13.266Z,0.83
2019-02-15T09:19:42.874Z,1.37
2019-02-15T09:22:12.580Z,1.00
2019-02-15T09:24:42.227Z,1.00
2019-02-15T09:27:11.895Z,1.23
2019-02-15T09:29:41.996Z,1.20
2019-02-15T09:32:11.614Z,1.23
2019-02-15T09:34:41.279Z,1.33
2019-02-15T09:37:10.634Z,1.20
2019-02-15T09:39:41.040Z,0.90
2019-02-15T09:42:10.740Z,1.00
2019-02-15T09:44:40.067Z,0.83
2019-02-15T09:47:09.573Z,0.80
2019-02-15T09:49:39.084Z,1.10
2019-02-15T09:52:08.828Z,1.07
2019-02-15T09:54:38.825Z,1.00
2019-02-15T09:57:08.128Z,1.00
2019-02-15T09:59:37.525Z,0.93
2019-02-15T10:02:06.959Z,0.90
2019-02-15T10:04:36.469Z,1.43
2019-02-15T10:07:06.036Z,1.10
2019-02-15T10:09:35.354Z,1.47
2019-02-15T10:12:04.846Z,1.07
2019-02-15T10:14:34.283Z,1.03
2019-02-15T10:17:03.910Z,1.07
2019-02-15T10:19:33.504Z,0.90
2019-02-15T10:22:02.941Z,0.80
2019-02-15T10:24:32.414Z,0.80
2019-02-15T10:27:02.202Z,0.80
2019-02-15T10:29:34.342Z,0.80
2019-02-15T10:32:03.814Z,0.80
2019-02-15T10:34:33.379Z,1.20
2019-02-15T10:37:02.908Z,1.00
2019-02-15T10:39:32.497Z,0.97
2019-02-15T10:42:01.907Z,0.90
2019-02-15T10:44:31.442Z,1.00
2019-02-15T10:47:01.221Z,1.10
2019-02-15T10:49:30.408Z,0.90
2019-02-15T10:51:59.993Z,0.90
2019-02-15T10:54:29.489Z,0.80
2019-02-15T10:57:00.650Z,0.90
2019-02-15T10:59:30.775Z,1.00
2019-02-15T11:01:59.945Z,0.80
2019-02-15T11:04:29.382Z,0.90
2019-02-15T11:06:58.926Z,0.90
2019-02-15T11:09:28.013Z,0.70
2019-02-15T11:11:57.480Z,1.00
2019-02-15T11:14:26.948Z,1.00
2019-02-15T11:16:57.310Z,0.90
2019-02-15T11:19:26.815Z,0.97
2019-02-15T11:21:56.400Z,1.00
2019-02-15T11:24:25.778Z,1.00
2019-02-15T11:26:55.228Z,1.20
2019-02-15T11:29:24.749Z,1.10
2019-02-15T11:31:54.114Z,1.00
2019-02-15T11:34:23.531Z,0.93
2019-02-15T11:36:52.964Z,0.97
2019-02-15T11:39:22.560Z,1.10
2019-02-15T11:41:51.868Z,1.00
2019-02-15T11:44:21.502Z,1.20
2019-02-15T11:46:56.596Z,1.50
2019-02-15T11:49:20.564Z,1.00
2019-02-15T11:51:50.141Z,0.90
2019-02-15T11:54:23.477Z,1.27
2019-02-15T11:56:49.581Z,1.50
2019-02-15T11:59:19.971Z,1.40
2019-02-15T12:01:49.595Z,1.20
2019-02-15T12:04:19.292Z,1.30
2019-02-15T12:06:48.733Z,2.00
2019-02-15T12:09:18.389Z,1.90
2019-02-15T12:11:47.580Z,2.00
2019-02-15T12:14:17.070Z,1.97
2019-02-15T12:16:46.570Z,1.70
2019-02-15T12:19:16.330Z,1.57
2019-02-15T12:21:45.778Z,1.70
2019-02-15T12:24:15.124Z,1.60
2019-02-15T12:26:44.710Z,2.00
2019-02-15T12:29:14.400Z,2.10
2019-02-15T12:31:44.046Z,2.00
2019-02-15T12:34:13.558Z,2.60
2019-02-15T12:36:43.357Z,2.10
2019-02-15T12:39:14.320Z,1.67
2019-02-15T12:41:42.809Z,1.70
2019-02-15T12:44:12.283Z,1.87
2019-02-15T12:46:41.472Z,2.10
2019-02-15T12:49:10.735Z,1.73
2019-02-15T12:51:41.058Z,1.90
2019-02-15T12:54:10.786Z,1.90
2019-02-15T12:56:41.228Z,1.90
2019-02-15T12:59:11.684Z,2.10
2019-02-15T13:01:41.526Z,2.73
2019-02-15T13:04:11.047Z,2.50
2019-02-15T13:06:40.559Z,2.90
2019-02-15T13:09:10.257Z,2.93
2019-02-15T13:11:39.811Z,3.70
2019-02-15T13:14:08.932Z,3.57
2019-02-15T13:16:38.839Z,3.17
2019-02-15T13:19:08.373Z,2.70
2019-02-15T13:21:37.782Z,2.67
2019-02-15T13:24:09.130Z,2.63
2019-02-15T13:26:38.690Z,2.60
2019-02-15T13:29:07.697Z,2.40
2019-02-15T13:31:37.439Z,2.70
2019-02-15T13:34:07.474Z,2.70
2019-02-15T13:36:37.064Z,2.90
2019-02-15T13:39:06.892Z,3.20
2019-02-15T13:41:38.075Z,2.83
2019-02-15T13:44:07.373Z,3.27
2019-02-15T13:46:36.848Z,2.80
2019-02-15T13:49:06.394Z,3.27
2019-02-15T13:51:35.599Z,3.60
2019-02-15T13:54:04.791Z,3.80
2019-02-15T13:56:34.172Z,4.17
2019-02-15T13:59:03.622Z,3.97
2019-02-15T14:01:33.508Z,4.27
2019-02-15T14:04:03.836Z,4.63
2019-02-15T14:06:32.960Z,4.23
2019-02-15T14:09:02.440Z,4.37
2019-02-15T14:11:31.867Z,4.57
2019-02-15T14:14:02.031Z,4.93
2019-02-15T14:16:32.112Z,5.23
2019-02-15T14:19:03.114Z,5.30
2019-02-15T14:21:32.918Z,5.20
2019-02-15T14:24:02.299Z,6.40
2019-02-15T14:26:31.932Z,6.47
2019-02-15T14:29:01.423Z,5.97
2019-02-15T14:31:30.788Z,5.77
2019-02-15T14:34:00.224Z,4.40
2019-02-15T14:36:29.522Z,5.30
2019-02-15T14:38:59.157Z,7.43
2019-02-15T14:41:28.774Z,7.80
2019-02-15T14:43:58.139Z,4.90
2019-02-15T14:46:27.628Z,4.40
2019-02-15T14:48:56.830Z,4.10
2019-02-15T14:51:26.683Z,4.27
2019-02-15T14:53:56.245Z,4.40
2019-02-15T14:56:25.678Z,4.23
2019-02-15T14:58:55.151Z,3.97
2019-02-15T15:01:24.731Z,4.13
2019-02-15T15:03:54.654Z,3.70
2019-02-15T15:06:24.699Z,3.43
2019-02-15T15:08:55.046Z,4.47
2019-02-15T15:11:24.488Z,3.50
2019-02-15T15:16:33.647Z,4.80
2019-02-15T15:19:04.017Z,3.33
2019-02-15T15:21:34.976Z,3.30
2019-02-15T15:24:03.485Z,3.57
2019-02-15T15:26:33.206Z,3.50
2019-02-15T15:29:03.356Z,2.87
2019-02-15T15:31:32.883Z,3.37
2019-02-15T15:34:03.333Z,3.60
2019-02-15T15:36:32.530Z,3.37
2019-02-15T15:39:01.938Z,3.47
2019-02-15T15:41:31.418Z,3.43
2019-02-15T15:44:00.652Z,3.93
2019-02-15T15:46:30.082Z,3.80
2019-02-15T15:49:00.673Z,4.17
2019-02-15T15:51:30.247Z,3.50
2019-02-15T15:53:59.859Z,3.47
2019-02-15T15:56:29.259Z,3.53
2019-02-15T15:58:58.932Z,3.50
2019-02-15T16:01:28.575Z,3.50
2019-02-15T16:03:58.168Z,2.93
2019-02-15T16:06:27.974Z,3.17
2019-02-15T16:08:57.507Z,4.00
2019-02-15T16:11:26.990Z,2.23
2019-02-15T16:13:56.572Z,2.30
2019-02-15T16:16:26.111Z,2.93
2019-02-15T16:18:55.445Z,3.60
2019-02-15T16:21:25.146Z,2.70
2019-02-15T16:23:54.668Z,2.00
2019-02-15T16:26:24.284Z,1.90
2019-02-15T16:28:54.189Z,1.70
2019-02-15T16:31:23.168Z,1.90
2019-02-15T16:33:52.742Z,1.63
2019-02-15T16:36:22.389Z,1.60
2019-02-15T16:38:52.213Z,1.60
2019-02-15T16:41:21.701Z,1.90
2019-02-15T16:43:51.326Z,1.60
2019-02-15T16:46:21.036Z,1.70
2019-02-15T16:48:50.806Z,1.70
2019-02-15T16:51:20.451Z,1.93
2019-02-15T16:53:50.145Z,1.97
2019-02-15T16:56:19.362Z,1.80
2019-02-15T16:58:48.658Z,1.40
2019-02-15T17:01:18.184Z,1.20
2019-02-15T17:03:47.663Z,1.20
2019-02-15T17:06:17.151Z,1.40
2019-02-15T17:08:47.277Z,1.30
2019-02-15T17:11:16.547Z,1.30
2019-02-15T17:13:45.753Z,1.20
2019-02-15T17:16:16.019Z,1.30
2019-02-15T17:18:51.392Z,1.50
2019-02-15T17:21:15.345Z,1.20
2019-02-15T17:23:44.923Z,1.70
2019-02-15T17:26:14.141Z,1.50
2019-02-15T17:28:43.410Z,1.50
2019-02-15T17:31:12.772Z,1.53
2019-02-15T17:33:41.934Z,1.60
2019-02-15T17:36:11.348Z,1.30
2019-02-15T17:38:41.961Z,1.30
2019-02-15T17:41:11.515Z,1.10
2019-02-15T17:43:41.077Z,1.30
2019-02-15T17:46:10.660Z,1.60
2019-02-15T17:48:40.087Z,1.90
2019-02-15T17:51:09.546Z,1.53
2019-02-15T17:53:39.753Z,1.30
2019-02-15T17:56:09.098Z,1.37
2019-02-15T17:58:38.682Z,1.60
2019-02-15T18:01:08.781Z,1.13
2019-02-15T18:03:38.158Z,1.40
2019-02-15T18:06:07.612Z,1.50
2019-02-15T18:08:37.035Z,2.00
2019-02-15T18:11:06.657Z,3.70
2019-02-15T18:13:36.174Z,3.47
2019-02-15T18:16:05.595Z,3.17
2019-02-15T18:18:35.067Z,2.60
2019-02-15T18:21:04.774Z,3.10
2019-02-15T18:23:34.367Z,2.87
2019-02-15T18:26:03.973Z,2.70
2019-02-15T18:28:34.562Z,2.20
2019-02-15T18:31:04.019Z,2.30
2019-02-15T18:33:33.353Z,2.87
2019-02-15T18:36:02.965Z,4.10
2019-02-15T18:38:32.512Z,5.30
2019-02-15T18:41:02.493Z,5.33
2019-02-15T18:43:32.274Z,5.50
2019-02-15T18:46:02.070Z,4.80
2019-02-15T18:48:32.538Z,4.50
2019-02-15T18:51:03.355Z,5.13
2019-02-15T18:53:32.784Z,5.47
2019-02-15T18:56:03.011Z,6.20
2019-02-15T18:58:32.998Z,5.23
2019-02-15T19:01:02.876Z,5.53
2019-02-15T19:03:32.835Z,5.90
2019-02-15T19:06:02.906Z,6.47
2019-02-15T19:08:33.467Z,5.93
2019-02-15T19:11:03.532Z,3.80
2019-02-15T19:13:32.925Z,2.90
2019-02-15T19:16:02.404Z,2.67
2019-02-15T19:18:32.460Z,1.80
2019-02-15T19:21:02.000Z,1.53
2019-02-15T19:23:31.759Z,1.20
2019-02-15T19:26:02.033Z,1.17
2019-02-15T19:28:31.448Z,1.20
2019-02-15T19:31:02.279Z,1.10
2019-02-15T19:33:32.808Z,1.10
2019-02-15T19:36:02.346Z,1.37
2019-02-15T19:38:31.802Z,1.10
2019-02-15T19:41:01.121Z,1.30
2019-02-15T19:43:30.616Z,1.43
2019-02-15T19:46:01.850Z,1.20
2019-02-15T19:48:31.521Z,1.40
2019-02-15T19:51:01.021Z,1.30
2019-02-15T19:53:30.582Z,1.27
2019-02-15T19:55:59.969Z,1.30
2019-02-15T19:58:29.602Z,1.17
2019-02-15T20:00:59.107Z,1.00
2019-02-15T20:03:28.606Z,1.33
2019-02-15T20:05:57.782Z,1.13
2019-02-15T20:08:27.545Z,1.10
2019-02-15T20:10:57.034Z,1.30
2019-02-15T20:13:26.586Z,1.30
2019-02-15T20:15:56.153Z,1.23
2019-02-15T20:18:25.767Z,1.10
2019-02-15T20:20:55.580Z,1.30
2019-02-15T20:23:24.805Z,1.50
2019-02-15T20:25:54.182Z,1.70
2019-02-15T20:28:23.700Z,1.50
2019-02-15T20:30:53.202Z,1.43
2019-02-15T20:33:22.496Z,1.77
2019-02-15T20:35:51.713Z,1.63
2019-02-15T20:38:22.131Z,1.70
2019-02-15T20:40:52.235Z,2.00
2019-02-15T20:43:22.025Z,2.97
2019-02-15T20:45:51.545Z,1.90
2019-02-15T20:48:21.911Z,2.00
2019-02-15T20:50:51.380Z,2.00
2019-02-15T20:53:20.797Z,2.10
2019-02-15T20:55:50.320Z,2.00
2019-02-15T20:58:19.885Z,2.03
2019-02-15T21:00:49.340Z,2.07
2019-02-15T21:03:18.917Z,2.07
2019-02-15T21:05:48.197Z,2.00
2019-02-15T21:08:17.700Z,2.17
2019-02-15T21:10:54.538Z,2.10
2019-02-15T21:13:20.480Z,1.60
2019-02-15T21:15:46.760Z,1.93
2019-02-15T21:18:16.223Z,2.10
2019-02-15T21:20:46.079Z,2.20
2019-02-15T21:23:15.640Z,2.50
2019-02-15T21:25:45.255Z,2.00
2019-02-15T21:28:14.807Z,2.00
2019-02-15T21:30:44.462Z,1.87
2019-02-15T21:33:13.765Z,1.97
2019-02-15T21:35:43.060Z,1.70
2019-02-15T21:38:12.821Z,1.90
2019-02-15T21:40:42.189Z,1.57
2019-02-15T21:43:11.592Z,1.67
2019-02-15T21:45:41.066Z,1.90
2019-02-15T21:48:10.846Z,1.60
2019-02-15T21:50:39.999Z,2.00
2019-02-15T21:53:09.474Z,1.27
2019-02-15T21:55:38.964Z,1.70
2019-02-15T21:58:08.587Z,2.20
2019-02-15T22:00:38.254Z,2.00
2019-02-15T22:03:07.621Z,2.20
2019-02-15T22:05:37.852Z,2.07
2019-02-15T22:08:08.276Z,2.43
2019-02-15T22:10:37.920Z,2.20
2019-02-15T22:13:07.497Z,2.23
2019-02-15T22:15:37.063Z,1.93
2019-02-15T22:18:06.507Z,1.87
2019-02-15T22:20:36.413Z,2.43
2019-02-15T22:23:06.466Z,2.00
2019-02-15T22:25:35.910Z,1.73
2019-02-15T22:28:05.552Z,1.97
2019-02-15T22:30:35.257Z,1.97
2019-02-15T22:33:04.747Z,1.90
2019-02-15T22:35:35.183Z,2.10
2019-02-15T22:38:04.813Z,1.90
2019-02-15T22:40:35.053Z,2.10
2019-02-15T22:43:05.749Z,1.63
2019-02-15T22:45:35.493Z,1.70
2019-02-15T22:48:05.837Z,1.60
2019-02-15T22:50:36.512Z,1.80
2019-02-15T22:53:05.681Z,1.37
2019-02-15T22:55:34.888Z,1.47
2019-02-15T22:58:04.780Z,1.60
2019-02-15T23:00:45.657Z,1.50
2019-02-15T23:03:15.158Z,1.70
2019-02-15T23:05:44.514Z,1.90
2019-02-15T23:08:13.492Z,1.77
2019-02-15T23:10:42.834Z,1.50
2019-02-15T23:13:12.449Z,1.70
2019-02-15T23:15:42.403Z,1.63
2019-02-15T23:18:12.112Z,1.87
2019-02-15T23:20:45.328Z,1.90
2019-02-15T23:23:11.414Z,1.70
2019-02-15T23:25:41.461Z,1.80
2019-02-15T23:28:11.232Z,1.67
2019-02-15T23:30:41.367Z,1.50
2019-02-15T23:33:10.900Z,1.77
2019-02-15T23:35:40.565Z,1.90
2019-02-15T23:38:10.242Z,1.87
2019-02-15T23:40:39.740Z,2.67
2019-02-15T23:43:09.334Z,2.20
2019-02-15T23:45:38.667Z,1.50
2019-02-15T23:48:08.349Z,1.83
2019-02-15T23:50:38.393Z,1.60
2019-02-15T23:53:08.183Z,1.70
2019-02-15T23:55:38.577Z,1.70
2019-02-15T23:58:08.218Z,1.70
